Time;durP1;ratioP1;P1;durP2;ratioP2;P2;SDS_P1;SDS_P2;PMS_P1;PMS_P2;Temp;Humidity;BMP_temperature;BMP_pressure;BME280_temperature;BME280_humidity;BME280_pressure;Samples;Min_cycle;Max_cycle;Signal;HPM_P1;HPM_P2
2022/04/19 00:00:21;;;;;;;;;8.50;8.50;;;;;10.35;77.16;100576.34;146590;683;46016;-81
2022/04/19 00:03:15;;;;;;;;;8.25;7.75;;;;;10.38;77.12;100571.31;146590;575;47008;-80
2022/04/19 00:06:07;;;;;;;;;11.00;9.00;;;;;10.42;77.36;100574.94;146587;675;47012;-80
2022/04/19 00:08:59;;;;;;;;;14.25;11.00;;;;;10.43;76.97;100574.12;146592;609;46020;-82
2022/04/19 00:11:51;;;;;;;;;8.50;8.50;;;;;10.44;76.91;100577.62;146587;571;47011;-82
2022/04/19 00:14:44;;;;;;;;;11.00;8.50;;;;;10.44;76.99;100568.16;146596;589;47008;-82
2022/04/19 00:17:35;;;;;;;;;11.25;9.00;;;;;10.43;76.76;100571.53;146592;645;46917;-81
2022/04/19 00:20:28;;;;;;;;;10.00;9.00;;;;;10.40;76.83;100568.78;146596;603;45021;-84
2022/04/19 00:23:21;;;;;;;;;13.50;12.00;;;;;10.21;76.74;100535.87;146593;569;46010;-89
2022/04/19 00:26:12;;;;;;;;;13.00;13.00;;;;;10.46;77.07;100560.44;146587;567;47011;-79
2022/04/19 00:29:04;;;;;;;;;16.25;13.00;;;;;10.49;76.63;100568.34;146590;606;46010;-78
2022/04/19 00:31:56;;;;;;;;;15.25;14.00;;;;;10.50;76.78;100563.25;146590;658;46008;-78
2022/04/19 00:34:49;;;;;;;;;12.25;10.25;;;;;10.51;76.89;100561.56;146586;603;47010;-78
2022/04/19 00:37:42;;;;;;;;;13.25;12.50;;;;;10.50;76.74;100562.34;146591;563;45020;-77
2022/04/19 00:40:35;;;;;;;;;15.50;13.00;;;;;10.50;76.40;100562.34;146587;572;46008;-81
2022/04/19 00:43:28;;;;;;;;;15.00;10.00;;;;;10.53;76.48;100573.78;146586;628;46021;-80
2022/04/19 00:46:20;;;;;;;;;18.25;16.00;;;;;10.55;76.61;100573.84;146586;649;46010;-79
2022/04/19 00:49:12;;;;;;;;;11.00;9.00;;;;;10.54;76.67;100570.38;146591;611;46020;-79
2022/04/19 00:52:05;;;;;;;;;12.00;12.00;;;;;10.53;76.74;100568.59;146592;586;46012;-79
2022/04/19 00:54:57;;;;;;;;;14.50;13.00;;;;;10.53;76.74;100576.37;146588;569;46020;-79
2022/04/19 00:57:51;;;;;;;;;14.00;12.00;;;;;10.52;76.64;100572.00;146586;582;46010;-80
2022/04/19 01:00:43;;;;;;;;;10.25;8.75;;;;;10.53;76.72;100570.28;146586;578;47008;-81
2022/04/19 01:03:37;;;;;;;;;11.75;10.00;;;;;10.51;76.68;100572.81;146588;610;47929;-82
2022/04/19 01:06:29;;;;;;;;;12.75;10.00;;;;;10.55;76.56;100577.31;146597;723;46008;-81
2022/04/19 01:09:23;;;;;;;;;11.50;9.00;;;;;10.55;76.92;100579.03;146587;574;46010;-78
2022/04/19 01:15:25;;;;;;;;;9.50;8.75;;;;;10.53;76.40;100584.16;146587;572;46914;-79
2022/04/19 01:18:22;;;;;;;;;11.00;10.00;;;;;10.55;76.77;100590.28;146594;736;47008;-78
2022/04/19 01:21:15;;;;;;;;;8.75;8.75;;;;;10.54;76.72;100585.94;146585;608;46017;-78
2022/04/19 01:24:07;;;;;;;;;10.50;9.25;;;;;10.56;76.85;100585.97;146587;587;46020;-78
2022/04/19 01:27:00;;;;;;;;;12.25;10.50;;;;;10.56;76.85;100593.75;146588;603;46017;-77
2022/04/19 01:29:57;;;;;;;;;13.50;11.00;;;;;10.51;77.79;100592.66;146585;590;47008;-75
2022/04/19 01:32:49;;;;;;;;;15.75;12.75;;;;;10.46;77.37;100595.00;146585;625;47010;-76
2022/04/19 01:35:41;;;;;;;;;15.50;13.25;;;;;10.42;77.22;100592.22;146592;698;45021;-76
2022/04/19 01:38:33;;;;;;;;;15.25;14.75;;;;;10.36;77.69;100592.78;146587;571;46010;-76
2022/04/19 01:41:25;;;;;;;;;14.00;13.75;;;;;10.30;77.89;100587.28;146589;624;46021;-76
2022/04/19 01:44:17;;;;;;;;;13.50;11.00;;;;;10.24;78.01;100592.13;146587;583;46916;-79
2022/04/19 01:47:10;;;;;;;;;19.00;15.50;;;;;10.20;78.38;100595.41;146591;618;45028;-77
2022/04/19 01:50:02;;;;;;;;;14.25;12.75;;;;;10.14;78.67;100602.03;146586;637;46016;-77
2022/04/19 01:52:55;;;;;;;;;14.50;13.50;;;;;10.09;78.68;100598.34;146588;639;46008;-77
2022/04/19 01:55:46;;;;;;;;;11.75;10.25;;;;;10.08;78.81;100591.38;146584;641;47010;-76
2022/04/19 01:58:39;;;;;;;;;13.25;12.25;;;;;10.09;78.82;100597.44;146587;565;46008;-84
2022/04/19 02:01:31;;;;;;;;;12.75;9.75;;;;;10.06;78.62;100595.59;146586;580;46016;-84
2022/04/19 02:04:23;;;;;;;;;12.25;10.25;;;;;9.90;78.86;100573.16;146591;579;46020;-81
2022/04/19 02:07:15;;;;;;;;;16.00;11.75;;;;;10.00;79.07;100590.09;146585;588;46012;-76
2022/04/19 02:10:08;;;;;;;;;11.00;11.00;;;;;10.01;78.66;100597.06;146587;566;47008;-79
2022/04/19 02:13:00;;;;;;;;;12.50;9.50;;;;;10.02;79.29;100585.87;146589;612;46016;-79
2022/04/19 02:15:52;;;;;;;;;12.00;10.00;;;;;10.02;78.60;100583.28;146590;714;46915;-83
2022/04/19 02:18:45;;;;;;;;;8.25;7.00;;;;;10.04;78.49;100583.38;146586;602;47012;-78
2022/04/19 02:21:38;;;;;;;;;12.50;10.75;;;;;10.04;78.12;100576.47;146588;586;46027;-89
2022/04/19 02:24:30;;;;;;;;;8.00;7.25;;;;;10.08;77.84;100573.22;146588;707;46016;-82
2022/04/19 02:27:24;;;;;;;;;11.75;7.75;;;;;10.12;77.84;100574.25;146598;595;46008;-81
2022/04/19 02:30:18;;;;;;;;;10.00;7.75;;;;;10.15;77.59;100572.72;146589;615;47010;-78
2022/04/19 02:33:10;;;;;;;;;9.25;8.00;;;;;10.20;77.81;100569.50;146589;711;46021;-78
2022/04/19 02:36:03;;;;;;;;;7.00;6.00;;;;;10.22;77.13;100573.03;146592;598;46016;-77
2022/04/19 02:38:57;;;;;;;;;7.50;7.50;;;;;10.22;76.81;100578.22;146594;615;46020;-84
2022/04/19 02:41:50;;;;;;;;;6.25;6.00;;;;;10.21;77.13;100574.72;146590;575;47012;-84
2022/04/19 02:44:42;;;;;;;;;5.50;4.50;;;;;10.21;76.66;100586.81;146592;613;46020;-85
2022/04/19 02:47:34;;;;;;;;;6.75;5.00;;;;;10.20;76.16;100585.03;146592;624;46012;-78
2022/04/19 02:50:27;;;;;;;;;6.25;5.00;;;;;10.21;76.53;100597.16;146587;583;46020;-80
2022/04/19 02:53:19;;;;;;;;;4.75;4.75;;;;;10.21;76.08;100587.69;146591;611;46016;-78
2022/04/19 02:56:11;;;;;;;;;5.50;5.00;;;;;10.21;76.16;100595.47;146597;655;45021;-80
2022/04/19 02:59:03;;;;;;;;;7.50;7.50;;;;;10.19;76.13;100602.28;146591;592;46916;-77
2022/04/19 03:01:56;;;;;;;;;8.00;8.00;;;;;10.20;76.49;100605.75;146597;629;46008;-77
2022/04/19 03:04:48;;;;;;;;;15.00;13.25;;;;;10.19;76.57;100604.88;146592;573;47012;-78
2022/04/19 03:07:40;;;;;;;;;9.50;9.50;;;;;10.18;77.11;100608.25;146585;569;47008;-79
2022/04/19 03:10:32;;;;;;;;;9.75;7.00;;;;;10.16;76.75;100605.59;146590;569;47012;-77
2022/04/19 03:13:27;;;;;;;;;10.75;9.00;;;;;10.14;77.18;100619.28;146593;618;46020;-81
2022/04/19 03:16:20;;;;;;;;;9.25;8.50;;;;;10.10;77.38;100617.38;146588;569;46016;-79
2022/04/19 03:19:13;;;;;;;;;12.00;10.75;;;;;10.08;77.77;100611.19;146586;580;47008;-79
2022/04/19 03:22:06;;;;;;;;;7.25;6.25;;;;;10.06;77.34;100613.72;146614;629;45917;-84
2022/04/19 03:28:09;;;;;;;;;9.75;8.75;;;;;10.07;77.40;100615.50;146618;629;45010;-84
2022/04/19 03:31:01;;;;;;;;;11.25;9.25;;;;;10.09;77.61;100612.97;146613;640;47020;-84
2022/04/19 03:33:54;;;;;;;;;9.75;9.50;;;;;10.11;77.44;100614.84;146614;603;45016;-83
2022/04/19 03:36:46;;;;;;;;;11.25;10.25;;;;;10.13;77.56;100627.88;146614;580;45020;-80
2022/04/19 03:39:38;;;;;;;;;12.75;9.00;;;;;10.14;77.41;100619.28;146617;576;46008;-87
2022/04/19 03:42:30;;;;;;;;;10.25;10.25;;;;;10.15;77.68;100623.66;146614;580;45020;-78
2022/04/19 03:45:22;;;;;;;;;12.75;11.00;;;;;10.17;77.55;100630.69;146614;615;46010;-79
2022/04/19 03:48:16;;;;;;;;;11.50;7.75;;;;;10.20;77.52;100631.69;146616;578;45020;-80
2022/04/19 03:51:08;;;;;;;;;8.25;7.00;;;;;10.21;77.65;100633.44;146616;663;46008;-79
2022/04/19 03:54:00;;;;;;;;;12.50;8.75;;;;;10.20;77.33;100639.44;146616;750;45009;-84
2022/04/19 03:56:52;;;;;;;;;1.00;1.00;;;;;10.14;76.13;100633.13;146617;570;45917;-86
2022/04/19 03:59:44;;;;;;;;;0.00;0.00;;;;;10.09;75.18;100644.97;146619;624;45020;-79
2022/04/19 04:02:36;;;;;;;;;0.00;0.00;;;;;10.03;75.00;100641.16;146616;571;46008;-78
2022/04/19 04:05:29;;;;;;;;;0.00;0.00;;;;;9.98;74.85;100637.44;146619;619;45915;-78
2022/04/19 04:08:21;;;;;;;;;0.00;0.00;;;;;9.95;74.55;100644.25;146617;652;45017;-77
2022/04/19 04:11:13;;;;;;;;;0.00;0.00;;;;;9.93;74.25;100644.97;146616;644;45020;-76
2022/04/19 04:14:05;;;;;;;;;0.50;0.00;;;;;9.90;74.37;100640.50;146615;717;45016;-76
2022/04/19 04:16:57;;;;;;;;;0.00;0.00;;;;;9.90;74.51;100652.56;146617;590;46009;-75
2022/04/19 04:19:50;;;;;;;;;1.00;1.00;;;;;9.89;74.73;100655.97;146609;602;46016;-75
2022/04/19 04:22:42;;;;;;;;;1.75;1.75;;;;;9.87;74.62;100655.00;146595;595;46008;-75
2022/04/19 04:25:34;;;;;;;;;1.00;1.00;;;;;9.87;74.44;100655.88;146589;564;47010;-75
2022/04/19 04:28:26;;;;;;;;;2.00;2.00;;;;;9.91;75.06;100664.75;146593;615;47008;-81
2022/04/19 04:31:18;;;;;;;;;1.25;1.00;;;;;9.97;75.46;100664.16;146590;652;47010;-73
2022/04/19 04:34:10;;;;;;;;;5.25;3.00;;;;;10.03;76.26;100664.47;146593;597;46020;-73
2022/04/19 04:37:02;;;;;;;;;7.25;6.75;;;;;10.05;75.73;100671.50;146590;579;46016;-84
2022/04/19 04:39:54;;;;;;;;;6.00;4.00;;;;;10.09;76.16;100669.97;146595;577;46008;-84
2022/04/19 04:42:46;;;;;;;;;4.25;3.50;;;;;10.14;75.87;100669.41;146593;615;46016;-81
2022/04/19 04:45:39;;;;;;;;;5.00;3.00;;;;;10.20;75.78;100678.31;146588;573;46010;-81
2022/04/19 04:51:41;;;;;;;;;5.25;3.50;;;;;10.22;75.71;100684.44;146594;579;46022;-81
2022/04/19 04:54:34;;;;;;;;;5.75;4.75;;;;;10.24;75.28;100688.91;146593;582;46016;-85
2022/04/19 04:57:26;;;;;;;;;2.00;2.00;;;;;10.28;74.48;100696.09;146594;596;46020;-82
2022/04/19 05:00:18;;;;;;;;;0.75;0.75;;;;;10.31;74.15;100697.91;146592;630;46917;-82
2022/04/19 05:03:11;;;;;;;;;2.00;2.00;;;;;10.36;72.84;100702.53;146594;642;46008;-83
2022/04/19 05:06:02;;;;;;;;;4.00;4.00;;;;;10.34;73.09;100703.25;146592;647;46016;-78
2022/04/19 05:08:55;;;;;;;;;3.50;2.50;;;;;10.39;73.42;100705.28;146590;663;47008;-82
2022/04/19 05:11:47;;;;;;;;;5.50;4.50;;;;;10.44;73.35;100715.91;146592;659;46916;-83
2022/04/19 05:14:39;;;;;;;;;4.75;4.00;;;;;10.50;73.49;100708.44;146586;653;47008;-83
2022/04/19 05:17:31;;;;;;;;;14.75;14.25;;;;;10.53;73.54;100713.78;146594;615;45917;-83
2022/04/19 05:20:24;;;;;;;;;4.25;4.00;;;;;10.60;73.46;100714.97;146589;576;46008;-76
2022/04/19 05:23:16;;;;;;;;;2.50;2.50;;;;;10.63;73.39;100712.56;146591;570;46016;-77
2022/04/19 05:26:08;;;;;;;;;7.50;6.00;;;;;10.67;73.89;100716.19;146595;569;47010;-78
2022/04/19 05:29:00;;;;;;;;;5.00;5.00;;;;;10.70;73.81;100719.81;146592;591;46016;-81
2022/04/19 05:31:52;;;;;;;;;6.75;5.75;;;;;10.73;74.08;100716.50;146591;622;47008;-80
2022/04/19 05:34:44;;;;;;;;;4.75;3.50;;;;;10.77;73.82;100719.31;146591;621;46016;-79
2022/04/19 05:37:40;;;;;;;;;5.25;4.50;;;;;10.82;73.59;100720.44;146595;582;46021;-77
2022/04/19 05:40:32;;;;;;;;;3.50;3.50;;;;;10.89;73.94;100721.63;146589;569;46016;-77
2022/04/19 05:43:25;;;;;;;;;5.00;5.00;;;;;10.93;73.02;100736.53;146587;632;46008;-74
2022/04/19 05:46:18;;;;;;;;;6.00;4.50;;;;;10.93;72.91;100733.03;146590;602;47016;-74
2022/04/19 05:49:10;;;;;;;;;3.50;3.50;;;;;10.95;73.03;100736.62;146590;571;46020;-74
2022/04/19 05:52:02;;;;;;;;;5.25;4.75;;;;;10.92;73.93;100739.06;146591;573;47011;-80
2022/04/19 05:54:54;;;;;;;;;4.75;4.25;;;;;10.87;73.77;100738.81;146592;629;46020;-79
2022/04/19 05:57:46;;;;;;;;;3.75;3.75;;;;;10.84;73.24;100743.84;146591;642;46016;-79
2022/04/19 06:00:38;;;;;;;;;3.25;3.25;;;;;10.80;72.53;100745.37;146593;623;47008;-80
2022/04/19 06:06:40;;;;;;;;;3.75;2.50;;;;;10.80;72.21;100748.00;146592;597;46020;-78
2022/04/19 06:09:32;;;;;;;;;4.25;4.00;;;;;10.84;72.09;100749.94;146590;757;46016;-85
2022/04/19 06:12:24;;;;;;;;;6.25;5.50;;;;;10.90;71.93;100743.25;146589;627;46020;-82
2022/04/19 06:15:16;;;;;;;;;5.00;5.00;;;;;10.98;69.88;100750.62;146593;643;45917;-78
2022/04/19 06:18:09;;;;;;;;;5.00;4.00;;;;;11.02;69.90;100744.75;146596;595;45020;-77
2022/04/19 06:21:01;;;;;;;;;8.00;6.50;;;;;11.10;71.16;100758.13;146593;631;45917;-79
2022/04/19 06:23:53;;;;;;;;;5.00;4.25;;;;;11.18;70.54;100761.09;146593;612;46021;-76
2022/04/19 06:26:45;;;;;;;;;4.00;3.00;;;;;11.22;70.00;100763.94;146588;646;46016;-84
2022/04/19 06:29:38;;;;;;;;;9.00;7.75;;;;;11.24;69.79;100758.78;146592;602;47008;-81
2022/04/19 06:32:30;;;;;;;;;7.00;6.25;;;;;11.34;70.65;100771.44;146590;601;46016;-79
2022/04/19 06:35:22;;;;;;;;;9.00;6.50;;;;;11.42;69.97;100779.59;146595;563;46008;-85
2022/04/19 06:38:15;;;;;;;;;3.75;3.75;;;;;11.44;69.02;100777.97;146590;606;46017;-78
2022/04/19 06:41:11;;;;;;;;;6.25;5.50;;;;;11.48;69.77;100788.56;146588;616;46020;-84
2022/04/19 06:44:03;;;;;;;;;8.25;7.25;;;;;11.50;70.81;100784.34;146592;604;46011;-81
2022/04/19 06:46:55;;;;;;;;;7.00;7.00;;;;;11.54;69.09;100791.44;146593;639;46021;-86
2022/04/19 06:49:47;;;;;;;;;6.25;6.00;;;;;11.55;69.50;100788.03;146589;598;47010;-80
2022/04/19 06:52:39;;;;;;;;;5.25;4.50;;;;;11.55;69.59;100797.53;146594;688;47008;-75
2022/04/19 06:55:33;;;;;;;;;3.50;3.50;;;;;10.55;68.38;100628.28;146590;662;45917;-83
2022/04/19 06:58:25;;;;;;;;;5.00;5.00;;;;;11.48;67.48;100793.75;146591;595;46010;-83
2022/04/19 07:01:17;;;;;;;;;8.75;6.50;;;;;11.46;68.37;100787.56;146592;594;46917;-78
2022/04/19 07:04:10;;;;;;;;;7.25;6.75;;;;;11.51;70.48;100793.91;146593;633;47008;-80
2022/04/19 07:07:03;;;;;;;;;5.50;3.75;;;;;11.62;70.79;100793.50;146591;616;46012;-82
2022/04/19 07:09:55;;;;;;;;;9.25;7.75;;;;;11.71;69.75;100788.75;146583;629;47915;-84
2022/04/19 07:12:47;;;;;;;;;7.50;7.25;;;;;11.84;68.83;100790.22;146594;572;46017;-78
2022/04/19 07:15:40;;;;;;;;;12.25;10.75;;;;;11.85;68.45;100795.53;146594;693;46020;-78
2022/04/19 07:18:32;;;;;;;;;9.75;9.75;;;;;11.77;67.20;100794.25;146586;582;47010;-78
2022/04/19 07:27:44;;;;;;;;;20.75;19.25;;;;;11.64;68.92;100794.50;146588;604;46020;-83
2022/04/19 07:30:36;;;;;;;;;12.25;10.25;;;;;11.70;68.33;100799.97;146585;661;46016;-79
2022/04/19 07:33:29;;;;;;;;;14.25;13.00;;;;;11.75;68.22;100806.28;146585;580;47008;-78
2022/04/19 07:36:21;;;;;;;;;12.50;11.50;;;;;11.78;68.50;100806.44;146585;593;46017;-79
2022/04/19 07:39:15;;;;;;;;;10.50;9.50;;;;;11.86;68.03;100809.41;146588;577;46020;-80
2022/04/19 07:42:08;;;;;;;;;10.75;10.75;;;;;11.96;68.26;100816.81;146591;574;45917;-79
2022/04/19 07:45:01;;;;;;;;;11.00;10.00;;;;;12.07;66.87;100802.63;146589;684;46008;-79
2022/04/19 07:47:53;;;;;;;;;10.25;7.50;;;;;12.16;67.26;100812.56;146586;590;46012;-76
2022/04/19 07:50:46;;;;;;;;;8.00;7.00;;;;;12.24;66.93;100813.78;146591;624;46027;-78
2022/04/19 07:53:38;;;;;;;;;7.75;6.75;;;;;12.34;68.85;100818.62;146592;581;46916;-79
2022/04/19 07:56:30;;;;;;;;;9.75;7.75;;;;;12.46;64.12;100820.84;146591;602;47008;-79
2022/04/19 07:59:22;;;;;;;;;6.50;5.00;;;;;12.56;65.31;100819.59;146593;627;46917;-77
2022/04/19 08:02:14;;;;;;;;;5.75;4.75;;;;;12.63;67.45;100830.31;146595;658;46008;-78
2022/04/19 08:05:06;;;;;;;;;5.00;4.00;;;;;12.73;68.36;100829.00;146592;660;45917;-79
2022/04/19 08:08:01;;;;;;;;;6.25;4.75;;;;;12.92;68.70;100831.59;146586;569;46020;-78
2022/04/19 08:10:53;;;;;;;;;3.25;3.25;;;;;13.10;66.92;100838.41;146590;573;47012;-82
2022/04/19 08:13:45;;;;;;;;;3.00;3.00;;;;;13.02;67.93;100843.31;146594;615;47008;-84
2022/04/19 08:16:37;;;;;;;;;4.75;2.00;;;;;12.86;66.17;100828.72;146590;570;46016;-84
2022/04/19 08:19:30;;;;;;;;;6.50;5.75;;;;;12.73;66.65;100839.41;146593;625;47008;-83
2022/04/19 08:22:21;;;;;;;;;6.75;5.75;;;;;12.65;66.89;100836.50;146593;569;46010;-83
2022/04/19 08:25:14;;;;;;;;;5.00;4.75;;;;;12.63;67.86;100847.66;146593;602;46020;-82
2022/04/19 08:28:07;;;;;;;;;6.00;3.75;;;;;12.57;68.20;100849.97;146590;615;48917;-83
2022/04/19 08:30:59;;;;;;;;;3.25;2.75;;;;;12.50;68.42;100845.31;146596;701;46008;-83
2022/04/19 08:33:51;;;;;;;;;6.25;3.75;;;;;12.52;68.55;100851.47;146592;575;47010;-83
2022/04/19 08:36:44;;;;;;;;;7.25;5.00;;;;;12.57;67.94;100847.37;146587;643;46021;-84
2022/04/19 08:39:36;;;;;;;;;5.50;4.75;;;;;12.67;68.15;100846.94;146591;641;46016;-84
2022/04/19 08:42:29;;;;;;;;;5.25;3.00;;;;;12.80;67.68;100849.25;146591;570;47008;-84
2022/04/19 08:45:21;;;;;;;;;4.00;4.00;;;;;12.86;66.38;100835.62;146592;565;46010;-85
2022/04/19 08:48:15;;;;;;;;;3.75;3.75;;;;;12.98;67.23;100845.69;146595;669;46020;-85
2022/04/19 08:51:09;;;;;;;;;5.25;5.25;;;;;13.00;63.81;100844.06;146593;719;46011;-83
2022/04/19 08:57:30;;;;;;;;;5.50;3.25;;;;;12.82;66.72;100862.34;146590;577;46017;-85
2022/04/19 09:00:24;;;;;;;;;6.50;5.50;;;;;12.78;66.37;100858.75;146595;563;46020;-84
2022/04/19 09:03:16;;;;;;;;;5.75;4.50;;;;;12.73;64.99;100854.16;146589;647;47012;-84
2022/04/19 09:06:09;;;;;;;;;3.75;3.00;;;;;12.72;66.85;100855.84;146586;570;46915;-84
2022/04/19 09:09:14;;;;;;;;;3.50;3.00;;;;;12.74;66.94;100850.72;146587;636;46016;-84
2022/04/19 09:12:12;;;;;;;;;2.50;2.50;;;;;12.77;64.60;100861.25;146594;579;47010;-85
2022/04/19 09:15:06;;;;;;;;;5.00;4.25;;;;;12.79;66.06;100857.91;146590;630;46016;-84
2022/04/19 09:17:59;;;;;;;;;3.75;3.25;;;;;12.86;66.62;100862.53;146591;676;47008;-85
2022/04/19 09:20:55;;;;;;;;;3.75;2.75;;;;;12.91;66.55;100860.16;146585;689;47918;-84
2022/04/19 09:23:56;;;;;;;;;4.00;3.00;;;;;12.93;66.50;100863.75;146594;595;46914;-85
2022/04/19 09:26:49;;;;;;;;;2.75;2.25;;;;;12.92;66.88;100862.81;146592;695;47010;-83
2022/04/19 09:29:41;;;;;;;;;3.00;3.00;;;;;12.90;66.93;100872.28;146593;595;46020;-84
2022/04/19 09:32:35;;;;;;;;;3.25;3.25;;;;;12.86;66.47;100866.88;146590;699;46016;-86
2022/04/19 09:35:35;;;;;;;;;4.50;3.50;;;;;12.81;66.84;100873.59;146588;693;46020;-85
2022/04/19 09:38:42;;;;;;;;;3.00;3.00;;;;;12.77;67.44;100866.47;146592;626;46008;-85
2022/04/19 09:41:38;;;;;;;;;2.75;2.00;;;;;12.80;67.37;100867.47;146594;580;46020;-86
2022/04/19 09:44:30;;;;;;;;;3.75;2.50;;;;;12.79;66.76;100876.12;146591;626;46016;-86
2022/04/19 09:47:22;;;;;;;;;2.25;2.25;;;;;12.74;66.27;100877.66;146594;569;46020;-85
2022/04/19 09:50:16;;;;;;;;;2.00;2.00;;;;;12.62;66.78;100869.28;146589;693;46017;-86
2022/04/19 09:53:21;;;;;;;;;1.00;1.00;;;;;12.45;67.51;100858.97;146594;573;46020;-87
2022/04/19 09:56:45;;;;;;;;;2.25;2.00;;;;;11.62;67.20;100728.59;146595;602;45918;-83
2022/04/19 10:00:00;;;;;;;;;2.00;2.00;;;;;12.39;67.64;100869.09;146594;618;46010;-85
2022/04/19 10:10:25;;;;;;;;;2.25;1.75;;;;;12.78;66.21;100870.87;146593;680;46017;-84
2022/04/19 10:13:25;;;;;;;;;3.75;3.75;;;;;12.97;68.00;100867.34;146594;637;46010;-87
2022/04/19 10:16:18;;;;;;;;;4.50;4.50;;;;;13.21;66.60;100875.31;146590;670;46917;-86
2022/04/19 10:19:13;;;;;;;;;4.50;4.50;;;;;13.35;65.69;100867.31;146596;628;46008;-86
2022/04/19 10:22:11;;;;;;;;;4.75;4.75;;;;;13.44;65.32;100874.63;146609;577;46016;-87
2022/04/19 10:25:04;;;;;;;;;3.25;3.25;;;;;13.46;64.80;100872.06;146610;573;46008;-86
2022/04/19 10:28:08;;;;;;;;;7.00;5.25;;;;;13.50;65.86;100871.37;146611;591;45917;-85
2022/04/19 10:31:02;;;;;;;;;5.75;4.00;;;;;13.53;64.56;100877.63;146611;665;45020;-85
2022/04/19 10:33:55;;;;;;;;;3.75;3.75;;;;;12.75;64.67;100743.22;146611;660;45017;-86
2022/04/19 10:36:45;;;;;;;;;2.75;2.75;;;;;13.49;64.59;100886.12;146610;569;46008;-84
2022/04/19 10:39:37;;;;;;;;;5.75;5.75;;;;;13.38;65.17;100884.78;146615;683;46008;-87
2022/04/19 10:42:38;;;;;;;;;8.50;7.00;;;;;13.30;64.87;100874.06;146612;572;46008;-85
2022/04/19 10:45:30;;;;;;;;;4.00;4.00;;;;;13.28;64.46;100873.09;146612;618;46008;-85
2022/04/19 10:48:23;;;;;;;;;4.00;3.75;;;;;13.27;64.70;100871.31;146614;572;45021;-87
2022/04/19 10:51:33;;;;;;;;;3.75;3.75;;;;;13.35;65.53;100867.31;146611;680;46010;-89
2022/04/19 10:55:38;;;;;;;;;3.50;3.50;;;;;12.84;65.64;100757.53;146615;675;45020;-88
2022/04/19 10:58:44;;;;;;;;;3.50;3.50;;;;;13.59;63.42;100871.78;146609;571;45016;-86
2022/04/19 11:01:36;;;;;;;;;5.00;3.75;;;;;13.63;64.39;100871.94;146612;658;46008;-87
2022/04/19 11:04:41;;;;;;;;;4.25;3.50;;;;;13.72;64.30;100870.56;146614;571;46008;-89
2022/04/19 11:07:46;;;;;;;;;4.75;3.00;;;;;13.88;65.19;100870.34;146614;622;45020;-87
2022/04/19 11:10:42;;;;;;;;;7.00;4.00;;;;;14.14;63.20;100875.69;146612;604;46017;-89
2022/04/19 11:13:36;;;;;;;;;6.25;4.50;;;;;14.38;61.60;100867.94;146613;585;45020;-86
2022/04/19 11:16:40;;;;;;;;;6.00;5.50;;;;;14.68;63.24;100870.84;146611;593;46008;-89
2022/04/19 11:19:33;;;;;;;;;3.50;3.25;;;;;14.97;57.96;100866.66;146612;628;46008;-86
2022/04/19 11:22:48;;;;;;;;;4.00;4.00;;;;;15.20;58.77;100865.78;146589;650;46016;-88
2022/04/19 11:25:45;;;;;;;;;6.75;5.50;;;;;15.34;59.78;100866.22;146591;592;47008;-87
2022/04/19 11:28:37;;;;;;;;;10.25;6.50;;;;;15.46;58.90;100871.00;146589;626;46012;-87
2022/04/19 11:31:32;;;;;;;;;5.00;4.50;;;;;15.52;59.51;100860.75;146587;636;47008;-87
2022/04/19 11:34:25;;;;;;;;;7.25;5.00;;;;;15.59;59.05;100852.25;146589;677;47010;-87
2022/04/19 11:37:19;;;;;;;;;4.00;4.00;;;;;15.45;56.95;100862.28;146587;691;46020;-86
2022/04/19 11:46:46;;;;;;;;;3.67;3.67;;;;;14.54;60.29;100695.50;146590;609;46016;-88
2022/04/19 11:49:40;;;;;;;;;3.00;3.00;;;;;15.68;58.35;100846.47;146591;633;46020;-88
2022/04/19 11:52:32;;;;;;;;;3.00;3.00;;;;;15.76;58.04;100846.72;146590;578;46917;-84
2022/04/19 11:55:27;;;;;;;;;3.67;3.67;;;;;15.80;58.79;100841.66;146591;647;47008;-85
2022/04/19 11:58:19;;;;;;;;;2.00;2.00;;;;;15.69;55.13;100832.56;146593;617;47010;-85
2022/04/19 12:01:13;;;;;;;;;2.67;2.67;;;;;15.61;57.00;100828.81;146592;581;47008;-87
2022/04/19 12:04:14;;;;;;;;;2.00;2.00;;;;;15.33;55.57;100825.28;146590;566;46017;-84
2022/04/19 12:07:12;;;;;;;;;2.00;2.00;;;;;14.99;56.86;100818.91;146705;565;45049;-86
2022/04/19 12:10:04;;;;;;;;;5.00;3.75;;;;;12.67;59.07;100455.00;146621;566;46016;-84
2022/04/19 12:12:57;;;;;;;;;3.75;3.00;;;;;12.50;59.10;100426.59;146624;577;46011;-85
2022/04/19 12:15:50;;;;;;;;;3.67;2.00;;;;;14.55;58.35;100809.50;146621;565;46012;-84
2022/04/19 12:18:42;;;;;;;;;4.00;4.00;;;;;14.48;58.05;100803.09;146627;563;45020;-88
2022/04/19 12:21:50;;;;;;;;;5.00;3.50;;;;;14.35;59.52;100806.09;146618;617;46920;-87
2022/04/19 12:25:06;;;;;;;;;3.67;3.00;;;;;14.18;58.23;100789.84;146626;563;46010;-85
2022/04/19 12:28:00;;;;;;;;;3.67;3.67;;;;;14.11;58.51;100790.41;146623;605;46012;-86
2022/04/19 12:30:52;;;;;;;;;2.67;2.00;;;;;14.28;61.04;100793.66;146628;653;45020;-86
2022/04/19 12:33:56;;;;;;;;;1.67;1.67;;;;;14.62;60.29;100784.50;146622;628;46016;-84
2022/04/19 12:36:54;;;;;;;;;1.33;1.33;;;;;14.82;59.80;100793.03;146624;664;46020;-82
2022/04/19 12:40:01;;;;;;;;;3.00;3.00;;;;;14.93;59.53;100796.91;146622;579;46016;-86
2022/04/19 12:42:54;;;;;;;;;2.00;2.00;;;;;14.98;58.71;100800.53;146623;658;46020;-86
2022/04/19 12:45:48;;;;;;;;;3.75;3.75;;;;;14.98;58.18;100811.00;146620;646;46016;-81
2022/04/19 12:48:41;;;;;;;;;2.00;2.00;;;;;14.99;58.05;100799.72;146623;685;46010;-87
2022/04/19 12:51:35;;;;;;;;;2.25;2.25;;;;;14.97;58.29;100794.44;146620;574;46016;-88
2022/04/19 12:54:30;;;;;;;;;5.50;5.50;;;;;14.99;58.20;100790.16;146625;656;45020;-85
2022/04/19 12:57:23;;;;;;;;;3.75;3.75;;;;;14.60;57.47;100710.47;146623;590;45920;-86
2022/04/19 13:00:16;;;;;;;;;2.75;2.50;;;;;15.00;55.57;100798.88;146625;581;46010;-89
2022/04/19 13:03:09;;;;;;;;;3.67;3.67;;;;;15.00;58.08;100788.44;146619;620;46016;-85
2022/04/19 13:12:26;;;;;;;;;2.25;2.25;;;;;15.08;57.01;100780.84;146624;665;46020;-84
2022/04/19 13:15:18;;;;;;;;;2.25;2.25;;;;;15.14;56.28;100792.44;146617;706;46012;-88
2022/04/19 13:18:10;;;;;;;;;3.00;2.50;;;;;15.08;56.75;100787.00;146625;571;45031;-78
2022/04/19 13:21:03;;;;;;;;;3.50;3.50;;;;;14.93;55.83;100786.47;146621;616;46012;-80
2022/04/19 13:23:56;;;;;;;;;2.00;1.00;;;;;14.59;54.04;100787.88;146622;570;46020;-85
2022/04/19 13:26:48;;;;;;;;;2.00;2.00;;;;;14.60;57.67;100791.38;146618;564;46016;-82
2022/04/19 13:29:44;;;;;;;;;4.50;3.50;;;;;14.70;58.06;100789.16;146622;579;46010;-79
2022/04/19 13:32:38;;;;;;;;;1.75;1.75;;;;;14.91;56.65;100788.12;146622;626;46012;-82
2022/04/19 13:35:30;;;;;;;;;2.75;2.75;;;;;15.08;56.19;100776.53;146627;598;45048;-84
2022/04/19 13:38:25;;;;;;;;;4.00;3.25;;;;;15.25;56.46;100780.59;146620;646;46016;-84
2022/04/19 13:41:17;;;;;;;;;3.00;3.00;;;;;15.28;55.42;100781.53;146622;712;46020;-82
2022/04/19 13:44:10;;;;;;;;;2.25;2.25;;;;;15.20;56.51;100769.13;146622;565;46014;-83
2022/04/19 13:47:02;;;;;;;;;2.00;2.00;;;;;15.11;55.30;100770.50;146624;646;45020;-82
2022/04/19 13:49:55;;;;;;;;;4.00;3.00;;;;;15.05;56.69;100770.34;146619;588;46016;-85
2022/04/19 13:52:47;;;;;;;;;2.00;2.00;;;;;14.99;56.25;100778.84;146624;563;46010;-78
2022/04/19 13:55:40;;;;;;;;;3.00;3.00;;;;;14.83;55.33;100779.13;146623;594;46012;-83
2022/04/19 13:58:33;;;;;;;;;2.50;2.50;;;;;14.66;55.90;100774.22;146620;585;46021;-78
2022/04/19 14:01:30;;;;;;;;;2.00;1.50;;;;;14.53;57.28;100775.50;146621;577;46014;-86
2022/04/19 14:04:22;;;;;;;;;4.00;4.00;;;;;14.48;57.13;100774.41;146624;564;46020;-84
2022/04/19 14:07:15;;;;;;;;;5.00;3.50;;;;;14.49;57.72;100775.31;146619;612;46017;-83